Joint Frost — PJOJ — position and weather

sailwx.info

Track history (hours):
 
Tides and Currents Weather Stations Pressure Air Temp Water Temp Dewpoint Dewpoint Depression Visibility Wind Speed Wind Dir Waves Ship Positions

Joint Frost

Last reported at 2018-May-15 14:20 UTC. Time now 2018-Jun-25 09:36 UTC.
Position N 27°56' W 082°26'.
Warning: this ship's position is 40 days out of date.

Length 83 m; beam 15 m.

Type: Cargo ship. MMSI: 306126000.

Date/timePositionNaut miles runAvg speedWind from/ knotsBaromVisibWave heightAir tempDewpointWater temp
2018-May-15 14:20N 27°56' W 082°26'0 0.0
2018-May-15 13:59N 27°56' W 082°26'0 0.0
2018-May-15 13:29N 27°56' W 082°26'0 0.0
2018-May-15 12:59N 27°56' W 082°26'0 0.0
2018-May-15 12:29N 27°56' W 082°26'0 0.0
2018-May-15 11:59N 27°56' W 082°26'0 0.0
2018-May-15 11:29N 27°56' W 082°26'0 0.0
2018-May-15 10:59N 27°56' W 082°26'0 0.0
2018-May-15 10:29N 27°56' W 082°26'0 0.0
2018-May-15 09:59N 27°56' W 082°26'0 0.0
2018-May-15 09:29N 27°56' W 082°26'0 0.0
2018-May-15 08:59N 27°56' W 082°26'0 0.0
2018-May-15 08:29N 27°56' W 082°26'0 0.0
2018-May-15 07:59N 27°56' W 082°26'0 0.0
2018-May-15 07:29N 27°56' W 082°26'0 0.0
2018-May-15 06:59N 27°56' W 082°26'0 0.0
2018-May-15 06:29N 27°56' W 082°26'0 0.0
2018-May-15 05:59N 27°56' W 082°26'0 0.0
2018-May-15 05:29N 27°56' W 082°26'0 0.0
2018-May-15 04:59N 27°56' W 082°26'0 0.0
2018-May-15 04:29N 27°56' W 082°26'0 0.0
2018-May-15 03:59N 27°56' W 082°26'0 0.0
2018-May-15 03:29N 27°56' W 082°26'0 0.0
2018-May-15 02:59N 27°56' W 082°26'0 0.0
2018-May-15 02:29N 27°56' W 082°26'0 0.0
2018-May-15 01:59N 27°56' W 082°26'0 0.0
2018-May-15 01:29N 27°56' W 082°26'0 0.0
2018-May-15 00:59N 27°56' W 082°26'0 0.0
2018-May-15 00:29N 27°56' W 082°26'0 0.0
2018-May-14 23:59N 27°56' W 082°26'0 0.0
2018-May-14 23:30N 27°56' W 082°26'0 0.0
2018-May-14 22:59N 27°56' W 082°26'0 0.0
2018-May-14 22:30N 27°56' W 082°26'0 0.0
2018-May-14 22:00N 27°56' W 082°26'0 0.0
2018-May-14 21:30N 27°56' W 082°26'0 0.4
2018-May-14 21:00N 27°55' W 082°26'1 2.7
2018-May-14 20:31N 27°54' W 082°26'0 0.6
2018-May-14 20:00N 27°55' W 082°26'0 0.0
2018-May-14 19:30N 27°55' W 082°26'0 0.0
2018-May-14 19:00N 27°55' W 082°26'0 0.0
2018-May-14 18:30N 27°55' W 082°26'0 0.0
2018-May-14 18:00N 27°55' W 082°26'0 0.0
2018-May-14 17:30N 27°55' W 082°26'0 0.0
2018-May-14 17:00N 27°55' W 082°26'0 0.0
2018-May-14 16:30N 27°55' W 082°26'0 0.0
2018-May-14 16:00N 27°55' W 082°26'0 0.0
2018-May-14 15:27N 27°55' W 082°26'0 0.0
2018-May-14 15:00N 27°55' W 082°26'0 0.0
2018-May-14 14:30N 27°55' W 082°26'0 0.0
2018-May-14 14:00N 27°55' W 082°26'0 0.0
2018-May-14 13:30N 27°55' W 082°26'0 0.0
2018-May-14 13:00N 27°55' W 082°26'0 0.0
2018-May-14 12:30N 27°55' W 082°26'0 0.0
2018-May-14 11:54N 27°55' W 082°26'0 0.0
2018-May-14 11:30N 27°55' W 082°26'0 0.4
2018-May-14 11:00N 27°55' W 082°27'1 1.6
2018-May-14 10:30N 27°54' W 082°26'4 7.7
2018-May-14 10:00N 27°50' W 082°27'510.0
2018-May-14 09:30N 27°47' W 082°31'510.6
2018-May-14 09:01N 27°42' W 082°33'510.7
2018-May-14 08:30N 27°38' W 082°37'14 0.3
2018-May-12 13:58N 27°37' W 082°53'0 0.0
2018-May-12 13:28N 27°37' W 082°53'0 0.0
2018-May-12 12:58N 27°37' W 082°53'0 0.0
2018-May-12 06:34N 27°37' W 082°53'0 0.0
2018-May-12 06:16N 27°37' W 082°53'0 0.0
2018-May-11 13:19N 27°37' W 082°53'0 0.0
2018-May-11 12:58N 27°37' W 082°53'0 0.0
2018-May-11 12:25N 27°37' W 082°53'0 0.0
2018-May-11 11:58N 27°37' W 082°53'0 0.0
2018-May-11 10:23N 27°37' W 082°53'1 3.6
2018-May-11 10:00N 27°36' W 082°54'6 9.8
2018-May-11 09:21N 27°30' W 082°56'410.2
2018-May-11 08:56N 27°26' W 082°58'510.0
2018-May-11 08:28N 27°22' W 082°60'5 9.9
2018-May-11 08:00N 27°18' W 083°01'  
Track history (hours):
 
Tides and Currents Weather Stations Pressure Air Temp Water Temp Dewpoint Dewpoint Depression Visibility Wind Speed Wind Dir Waves Ship Positions

Joint Frost

Last reported at 2018-May-15 14:20 UTC. Time now 2018-Jun-25 09:36 UTC.
Position N 27°56' W 082°26'.
Warning: this ship's position is 40 days out of date.

Length 83 m; beam 15 m.

Type: Cargo ship. MMSI: 306126000.

Date/timePositionNaut miles runAvg speedWind from/ knotsBaromVisibWave heightAir tempDewpointWater temp
2018-May-15 14:20N 27°56' W 082°26'0 0.0
2018-May-15 13:59N 27°56' W 082°26'0 0.0
2018-May-15 13:29N 27°56' W 082°26'0 0.0
2018-May-15 12:59N 27°56' W 082°26'0 0.0
2018-May-15 12:29N 27°56' W 082°26'0 0.0
2018-May-15 11:59N 27°56' W 082°26'0 0.0
2018-May-15 11:29N 27°56' W 082°26'0 0.0
2018-May-15 10:59N 27°56' W 082°26'0 0.0
2018-May-15 10:29N 27°56' W 082°26'0 0.0
2018-May-15 09:59N 27°56' W 082°26'0 0.0
2018-May-15 09:29N 27°56' W 082°26'0 0.0
2018-May-15 08:59N 27°56' W 082°26'0 0.0
2018-May-15 08:29N 27°56' W 082°26'0 0.0
2018-May-15 07:59N 27°56' W 082°26'0 0.0
2018-May-15 07:29N 27°56' W 082°26'0 0.0
2018-May-15 06:59N 27°56' W 082°26'0 0.0
2018-May-15 06:29N 27°56' W 082°26'0 0.0
2018-May-15 05:59N 27°56' W 082°26'0 0.0
2018-May-15 05:29N 27°56' W 082°26'0 0.0
2018-May-15 04:59N 27°56' W 082°26'0 0.0
2018-May-15 04:29N 27°56' W 082°26'0 0.0
2018-May-15 03:59N 27°56' W 082°26'0 0.0
2018-May-15 03:29N 27°56' W 082°26'0 0.0
2018-May-15 02:59N 27°56' W 082°26'0 0.0
2018-May-15 02:29N 27°56' W 082°26'0 0.0
2018-May-15 01:59N 27°56' W 082°26'0 0.0
2018-May-15 01:29N 27°56' W 082°26'0 0.0
2018-May-15 00:59N 27°56' W 082°26'0 0.0
2018-May-15 00:29N 27°56' W 082°26'0 0.0
2018-May-14 23:59N 27°56' W 082°26'0 0.0
2018-May-14 23:30N 27°56' W 082°26'0 0.0
2018-May-14 22:59N 27°56' W 082°26'0 0.0
2018-May-14 22:30N 27°56' W 082°26'0 0.0
2018-May-14 22:00N 27°56' W 082°26'0 0.0
2018-May-14 21:30N 27°56' W 082°26'0 0.4
2018-May-14 21:00N 27°55' W 082°26'1 2.7
2018-May-14 20:31N 27°54' W 082°26'0 0.6
2018-May-14 20:00N 27°55' W 082°26'0 0.0
2018-May-14 19:30N 27°55' W 082°26'0 0.0
2018-May-14 19:00N 27°55' W 082°26'0 0.0
2018-May-14 18:30N 27°55' W 082°26'0 0.0
2018-May-14 18:00N 27°55' W 082°26'0 0.0
2018-May-14 17:30N 27°55' W 082°26'0 0.0
2018-May-14 17:00N 27°55' W 082°26'0 0.0
2018-May-14 16:30N 27°55' W 082°26'0 0.0
2018-May-14 16:00N 27°55' W 082°26'0 0.0
2018-May-14 15:27N 27°55' W 082°26'0 0.0
2018-May-14 15:00N 27°55' W 082°26'0 0.0
2018-May-14 14:30N 27°55' W 082°26'0 0.0
2018-May-14 14:00N 27°55' W 082°26'0 0.0
2018-May-14 13:30N 27°55' W 082°26'0 0.0
2018-May-14 13:00N 27°55' W 082°26'0 0.0
2018-May-14 12:30N 27°55' W 082°26'0 0.0
2018-May-14 11:54N 27°55' W 082°26'0 0.0
2018-May-14 11:30N 27°55' W 082°26'0 0.4
2018-May-14 11:00N 27°55' W 082°27'1 1.6
2018-May-14 10:30N 27°54' W 082°26'4 7.7
2018-May-14 10:00N 27°50' W 082°27'510.0
2018-May-14 09:30N 27°47' W 082°31'510.6
2018-May-14 09:01N 27°42' W 082°33'510.7
2018-May-14 08:30N 27°38' W 082°37'14 0.3
2018-May-12 13:58N 27°37' W 082°53'0 0.0
2018-May-12 13:28N 27°37' W 082°53'0 0.0
2018-May-12 12:58N 27°37' W 082°53'0 0.0
2018-May-12 06:34N 27°37' W 082°53'0 0.0
2018-May-12 06:16N 27°37' W 082°53'0 0.0
2018-May-11 13:19N 27°37' W 082°53'0 0.0
2018-May-11 12:58N 27°37' W 082°53'0 0.0
2018-May-11 12:25N 27°37' W 082°53'0 0.0
2018-May-11 11:58N 27°37' W 082°53'0 0.0
2018-May-11 10:23N 27°37' W 082°53'1 3.6
2018-May-11 10:00N 27°36' W 082°54'6 9.8
2018-May-11 09:21N 27°30' W 082°56'410.2
2018-May-11 08:56N 27°26' W 082°58'510.0
2018-May-11 08:28N 27°22' W 082°60'5 9.9
2018-May-11 08:00N 27°18' W 083°01'  

Dump ship's entire track history